Time;durP1;ratioP1;P1;durP2;ratioP2;P2;SDS_P1;SDS_P2;PMS_P1;PMS_P2;Temp;Humidity;BMP_temperature;BMP_pressure;BME280_temperature;BME280_humidity;BME280_pressure;Samples;Min_cycle;Max_cycle;Signal;HPM_P1;HPM_P2
2021/01/13 00:01:29;;;;;;;11.47;7.30;;;;;;;;;;5041131;28;20489;-72
2021/01/13 00:03:56;;;;;;;9.10;6.27;;;;;;;;;;5037847;28;20450;-71
2021/01/13 00:06:22;;;;;;;15.23;6.70;;;;;;;;;;5043726;28;20454;-71
2021/01/13 00:08:49;;;;;;;12.80;6.80;;;;;;;;;;5040260;28;20461;-71
2021/01/13 00:11:16;;;;;;;10.73;7.83;;;;;;;;;;5036343;28;20438;-71
2021/01/13 00:13:43;;;;;;;12.60;5.90;;;;;;;;;;5041479;28;20477;-70
2021/01/13 00:16:13;;;;;;;9.83;6.63;;;;;;;;;;5042352;28;20870;-70
2021/01/13 00:18:40;;;;;;;11.90;6.17;;;;;;;;;;5038786;28;21062;-70
2021/01/13 00:21:12;;;;;;;14.43;6.90;;;;;;;;;;5039868;28;20450;-70
2021/01/13 00:23:39;;;;;;;10.03;6.47;;;;;;;;;;5034636;28;20442;-69
2021/01/13 00:26:05;;;;;;;8.90;6.23;;;;;;;;;;5045908;28;20859;-69
2021/01/13 00:28:34;;;;;;;10.10;6.00;;;;;;;;;;5041714;28;20481;-69
2021/01/13 00:31:00;;;;;;;15.20;6.77;;;;;;;;;;5036593;28;20441;-69
2021/01/13 00:33:27;;;;;;;8.67;5.43;;;;;;;;;;5036325;28;20990;-69
2021/01/13 00:35:54;;;;;;;9.83;5.50;;;;;;;;;;5033231;28;20445;-69
2021/01/13 00:38:20;;;;;;;9.60;6.13;;;;;;;;;;5035966;28;20521;-69
2021/01/13 00:40:47;;;;;;;8.77;5.37;;;;;;;;;;5042621;28;20454;-69
2021/01/13 00:43:13;;;;;;;11.07;6.03;;;;;;;;;;5041596;28;20468;-69
2021/01/13 00:45:41;;;;;;;7.80;5.33;;;;;;;;;;5045449;28;20818;-69
2021/01/13 00:48:07;;;;;;;11.33;6.27;;;;;;;;;;5035703;28;20466;-68
2021/01/13 00:50:34;;;;;;;8.87;5.20;;;;;;;;;;5038583;28;20476;-68
2021/01/13 00:53:01;;;;;;;10.97;5.50;;;;;;;;;;5039527;28;20536;-69
2021/01/13 00:55:29;;;;;;;9.00;5.00;;;;;;;;;;5039120;28;20482;-69
2021/01/13 00:57:56;;;;;;;7.47;4.67;;;;;;;;;;5040050;28;20466;-69
2021/01/13 01:00:22;;;;;;;10.90;5.47;;;;;;;;;;5043299;28;20450;-69
2021/01/13 01:02:50;;;;;;;11.23;5.80;;;;;;;;;;5043178;28;20457;-69
2021/01/13 01:05:17;;;;;;;16.70;5.40;;;;;;;;;;5045199;28;20445;-69
2021/01/13 01:07:44;;;;;;;8.47;5.17;;;;;;;;;;5041088;28;20449;-69
2021/01/13 01:10:11;;;;;;;12.43;5.00;;;;;;;;;;5042890;28;20570;-69
2021/01/13 01:12:38;;;;;;;7.73;5.87;;;;;;;;;;5044409;28;20490;-69
2021/01/13 01:15:05;;;;;;;7.40;5.10;;;;;;;;;;5047161;28;20490;-69
2021/01/13 01:17:32;;;;;;;5.87;4.77;;;;;;;;;;5042363;28;20468;-69
2021/01/13 01:19:59;;;;;;;6.43;4.93;;;;;;;;;;5042432;28;20474;-69
2021/01/13 01:22:26;;;;;;;10.00;5.00;;;;;;;;;;5042725;28;20438;-68
2021/01/13 01:24:52;;;;;;;10.53;4.87;;;;;;;;;;5045181;28;20496;-69
2021/01/13 01:27:19;;;;;;;10.73;5.83;;;;;;;;;;5041337;28;20466;-69
2021/01/13 01:29:46;;;;;;;10.70;4.70;;;;;;;;;;5039298;28;20827;-69
2021/01/13 01:32:12;;;;;;;6.27;4.87;;;;;;;;;;5038655;28;21053;-69
2021/01/13 01:34:39;;;;;;;6.83;4.20;;;;;;;;;;5040686;28;20787;-69
2021/01/13 01:37:06;;;;;;;9.80;5.00;;;;;;;;;;5043283;28;20450;-69
2021/01/13 01:39:33;;;;;;;7.90;5.10;;;;;;;;;;5043159;28;20469;-69
2021/01/13 01:41:59;;;;;;;10.77;5.50;;;;;;;;;;5035774;28;20815;-69
2021/01/13 01:44:26;;;;;;;13.83;5.50;;;;;;;;;;5044360;28;20452;-69
2021/01/13 01:46:57;;;;;;;12.10;5.60;;;;;;;;;;5039364;28;20459;-69
2021/01/13 01:49:24;;;;;;;8.50;5.70;;;;;;;;;;5046235;28;20469;-69
2021/01/13 01:51:59;;;;;;;9.50;5.93;;;;;;;;;;5039184;28;20575;-69
2021/01/13 01:54:27;;;;;;;7.73;5.53;;;;;;;;;;5061866;22;22344;-70
2021/01/13 01:56:54;;;;;;;14.23;6.00;;;;;;;;;;5074086;28;20441;-70
2021/01/13 01:59:32;;;;;;;10.17;6.10;;;;;;;;;;5062794;28;20461;-70
2021/01/13 02:02:00;;;;;;;11.30;6.60;;;;;;;;;;5067340;28;21016;-72
2021/01/13 02:04:29;;;;;;;13.93;6.27;;;;;;;;;;5062534;28;20570;-74
2021/01/13 02:07:20;;;;;;;12.83;6.30;;;;;;;;;;5066979;28;20449;-72
2021/01/13 02:09:47;;;;;;;13.13;6.40;;;;;;;;;;5069622;28;20495;-72
2021/01/13 02:12:14;;;;;;;8.17;5.87;;;;;;;;;;5064838;28;20461;-72
2021/01/13 02:14:41;;;;;;;10.50;7.20;;;;;;;;;;5065267;28;20446;-72
2021/01/13 02:17:08;;;;;;;8.97;5.90;;;;;;;;;;5067392;28;20477;-72
2021/01/13 02:19:56;;;;;;;12.80;7.53;;;;;;;;;;5068169;28;20464;-72
2021/01/13 02:22:25;;;;;;;9.80;6.30;;;;;;;;;;5060549;28;20822;-72
2021/01/13 02:25:26;;;;;;;11.70;7.43;;;;;;;;;;5064594;28;20568;-72
2021/01/13 02:27:59;;;;;;;11.97;6.67;;;;;;;;;;5066423;28;20456;-70
2021/01/13 02:30:26;;;;;;;9.13;6.33;;;;;;;;;;5067692;28;20853;-70
2021/01/13 02:32:56;;;;;;;13.00;7.10;;;;;;;;;;5071422;28;20491;-70
2021/01/13 02:35:24;;;;;;;9.70;6.70;;;;;;;;;;5073282;28;20551;-70
2021/01/13 02:37:58;;;;;;;11.97;7.43;;;;;;;;;;5074991;28;20475;-70
2021/01/13 02:40:25;;;;;;;12.33;7.53;;;;;;;;;;5073479;28;20453;-70
2021/01/13 02:43:15;;;;;;;15.20;7.73;;;;;;;;;;5061443;28;20595;-70
2021/01/13 02:45:43;;;;;;;11.73;6.87;;;;;;;;;;5047907;28;20815;-70
2021/01/13 02:48:11;;;;;;;11.60;7.90;;;;;;;;;;5065313;28;20492;-70
2021/01/13 02:50:39;;;;;;;13.70;8.30;;;;;;;;;;5069220;28;20449;-70
2021/01/13 02:53:21;;;;;;;9.97;7.03;;;;;;;;;;5068638;28;20481;-70
2021/01/13 02:56:02;;;;;;;15.37;7.30;;;;;;;;;;5008291;28;20461;-70
2021/01/13 02:58:33;;;;;;;13.03;7.40;;;;;;;;;;5059154;28;20469;-70
2021/01/13 03:01:02;;;;;;;10.77;6.60;;;;;;;;;;5066414;28;20441;-70
2021/01/13 03:03:31;;;;;;;11.67;7.03;;;;;;;;;;5066186;28;20514;-70
2021/01/13 03:06:02;;;;;;;9.13;6.40;;;;;;;;;;5068474;28;20449;-71
2021/01/13 03:08:37;;;;;;;13.20;6.47;;;;;;;;;;5069303;28;20464;-71
2021/01/13 03:11:06;;;;;;;16.43;7.17;;;;;;;;;;5057196;28;20456;-70
2021/01/13 03:13:36;;;;;;;14.57;7.77;;;;;;;;;;5069105;28;20857;-71
2021/01/13 03:16:04;;;;;;;13.07;7.70;;;;;;;;;;5067678;28;20574;-71
2021/01/13 03:18:36;;;;;;;14.03;8.20;;;;;;;;;;5066366;28;20472;-70
2021/01/13 03:21:05;;;;;;;11.87;6.60;;;;;;;;;;5065786;28;20455;-72
2021/01/13 03:23:36;;;;;;;13.03;7.40;;;;;;;;;;5067496;28;20490;-71
2021/01/13 03:26:03;;;;;;;16.47;7.50;;;;;;;;;;5057581;28;20445;-72
2021/01/13 03:28:32;;;;;;;11.23;7.00;;;;;;;;;;5062355;28;20473;-72
2021/01/13 03:30:59;;;;;;;12.70;8.43;;;;;;;;;;5060715;28;20453;-72
2021/01/13 03:33:46;;;;;;;13.40;7.33;;;;;;;;;;5072330;28;20488;-72
2021/01/13 03:36:17;;;;;;;11.10;6.83;;;;;;;;;;5064040;28;20445;-72
2021/01/13 03:38:52;;;;;;;14.00;6.70;;;;;;;;;;5067426;28;20485;-71
2021/01/13 03:41:22;;;;;;;11.30;6.13;;;;;;;;;;5065114;28;21082;-72
2021/01/13 03:43:53;;;;;;;7.70;4.53;;;;;;;;;;5067560;28;20444;-72
2021/01/13 03:46:20;;;;;;;16.30;5.90;;;;;;;;;;5056573;28;20506;-72
2021/01/13 03:48:48;;;;;;;6.47;4.90;;;;;;;;;;5066801;28;20457;-72
2021/01/13 03:51:32;;;;;;;10.23;4.97;;;;;;;;;;5064437;28;20445;-72
2021/01/13 03:54:01;;;;;;;9.27;5.53;;;;;;;;;;5067683;28;20487;-72
2021/01/13 03:56:28;;;;;;;11.23;5.27;;;;;;;;;;5068573;28;20476;-72
2021/01/13 03:58:55;;;;;;;12.23;6.03;;;;;;;;;;5066632;28;21008;-72
2021/01/13 04:01:35;;;;;;;8.60;5.10;;;;;;;;;;5061297;28;20893;-72
2021/01/13 04:04:17;;;;;;;10.53;5.40;;;;;;;;;;5069572;28;20449;-72
2021/01/13 04:06:45;;;;;;;11.20;5.57;;;;;;;;;;5066501;28;20441;-72
2021/01/13 04:09:14;;;;;;;10.73;6.13;;;;;;;;;;5067636;28;20469;-72
2021/01/13 04:11:42;;;;;;;11.23;6.03;;;;;;;;;;5063305;28;20844;-72
2021/01/13 04:14:10;;;;;;;10.93;5.37;;;;;;;;;;5063040;28;20488;-72
2021/01/13 04:16:38;;;;;;;17.33;6.10;;;;;;;;;;5063238;28;20465;-72
2021/01/13 04:19:06;;;;;;;14.20;6.53;;;;;;;;;;5063880;28;20477;-72
2021/01/13 04:21:33;;;;;;;10.80;6.43;;;;;;;;;;5067326;28;20456;-72
2021/01/13 04:24:00;;;;;;;10.33;6.90;;;;;;;;;;5066881;28;20515;-72
2021/01/13 04:26:28;;;;;;;12.07;6.90;;;;;;;;;;5065570;28;20501;-72
2021/01/13 04:28:55;;;;;;;11.57;6.50;;;;;;;;;;5069178;28;20472;-72
2021/01/13 04:31:21;;;;;;;12.67;7.10;;;;;;;;;;5066046;28;20471;-72
2021/01/13 04:33:48;;;;;;;17.97;8.07;;;;;;;;;;5067360;28;20485;-71
2021/01/13 04:36:16;;;;;;;11.77;6.40;;;;;;;;;;5066514;28;20457;-71
2021/01/13 04:38:43;;;;;;;12.30;6.40;;;;;;;;;;5062231;28;20834;-70
2021/01/13 04:41:11;;;;;;;14.53;5.83;;;;;;;;;;5069049;28;20540;-70
2021/01/13 04:43:58;;;;;;;17.40;6.37;;;;;;;;;;5077067;28;20506;-70
2021/01/13 04:46:27;;;;;;;10.40;6.70;;;;;;;;;;5064680;28;21042;-70
2021/01/13 04:49:00;;;;;;;11.10;6.27;;;;;;;;;;5069050;28;20476;-70
2021/01/13 04:51:28;;;;;;;12.43;6.70;;;;;;;;;;5069960;28;21010;-70
2021/01/13 04:53:55;;;;;;;13.03;8.40;;;;;;;;;;5073553;28;20996;-70
2021/01/13 04:56:23;;;;;;;12.73;6.77;;;;;;;;;;5070170;28;20472;-70
2021/01/13 04:59:06;;;;;;;12.53;7.17;;;;;;;;;;5068761;28;20483;-70
2021/01/13 05:01:50;;;;;;;12.03;6.17;;;;;;;;;;5061317;28;20453;-70
2021/01/13 05:04:30;;;;;;;14.30;6.63;;;;;;;;;;5064587;28;20462;-70
2021/01/13 05:07:12;;;;;;;9.20;6.00;;;;;;;;;;5067152;28;20497;-70
2021/01/13 05:09:45;;;;;;;9.87;5.97;;;;;;;;;;5062143;28;20914;-71
2021/01/13 05:12:13;;;;;;;9.60;6.63;;;;;;;;;;5066586;28;20453;-72
2021/01/13 05:14:44;;;;;;;9.27;5.67;;;;;;;;;;5076168;28;20880;-71
2021/01/13 05:17:21;;;;;;;15.63;7.83;;;;;;;;;;5066334;28;20514;-71
2021/01/13 05:20:06;;;;;;;14.93;6.17;;;;;;;;;;5070268;28;20471;-71
2021/01/13 05:22:34;;;;;;;13.80;6.30;;;;;;;;;;5067752;28;20452;-71
2021/01/13 05:25:03;;;;;;;11.37;6.00;;;;;;;;;;5067028;28;20460;-71
2021/01/13 05:27:42;;;;;;;9.00;6.30;;;;;;;;;;5076538;28;20447;-71
2021/01/13 05:30:10;;;;;;;9.83;6.40;;;;;;;;;;5063755;28;20476;-71
2021/01/13 05:32:40;;;;;;;10.77;5.80;;;;;;;;;;5068003;28;20494;-71
2021/01/13 05:35:07;;;;;;;11.00;5.33;;;;;;;;;;5069601;28;20453;-71
2021/01/13 05:37:45;;;;;;;12.73;5.10;;;;;;;;;;5065823;28;20579;-71
2021/01/13 05:40:14;;;;;;;11.63;5.87;;;;;;;;;;5064408;28;20484;-71
2021/01/13 05:42:41;;;;;;;9.73;6.03;;;;;;;;;;5069505;28;20472;-71
2021/01/13 05:45:08;;;;;;;14.53;6.13;;;;;;;;;;5062627;28;20445;-71
2021/01/13 05:47:51;;;;;;;9.30;5.50;;;;;;;;;;5065257;28;20462;-71
2021/01/13 05:50:19;;;;;;;7.90;4.43;;;;;;;;;;5067206;28;20460;-71
2021/01/13 05:52:48;;;;;;;7.93;5.57;;;;;;;;;;5067277;28;20565;-71
2021/01/13 05:55:16;;;;;;;9.27;5.07;;;;;;;;;;5070298;28;20477;-71
2021/01/13 05:57:52;;;;;;;10.40;6.20;;;;;;;;;;5070247;28;20449;-71
2021/01/13 06:00:20;;;;;;;8.77;4.67;;;;;;;;;;5062873;28;21022;-71
2021/01/13 06:02:48;;;;;;;12.80;6.70;;;;;;;;;;5063108;28;20449;-72
2021/01/13 06:05:15;;;;;;;11.27;5.73;;;;;;;;;;5062070;28;20540;-71
2021/01/13 06:07:42;;;;;;;11.03;5.83;;;;;;;;;;5063018;28;20451;-71
2021/01/13 06:10:12;;;;;;;11.63;6.30;;;;;;;;;;5060016;28;20472;-71
2021/01/13 06:12:42;;;;;;;12.93;4.97;;;;;;;;;;5058888;28;20511;-71
2021/01/13 06:15:09;;;;;;;9.03;4.63;;;;;;;;;;5057376;28;20469;-71
2021/01/13 06:17:36;;;;;;;9.37;4.70;;;;;;;;;;5058844;28;20446;-71
2021/01/13 06:20:05;;;;;;;7.37;4.93;;;;;;;;;;5061203;28;20469;-71
2021/01/13 06:22:32;;;;;;;12.47;5.00;;;;;;;;;;5063836;28;20453;-71
2021/01/13 06:25:00;;;;;;;7.23;5.57;;;;;;;;;;5059591;28;20481;-71
2021/01/13 06:27:36;;;;;;;12.30;5.70;;;;;;;;;;5061007;28;20549;-71
2021/01/13 06:30:03;;;;;;;7.60;5.17;;;;;;;;;;5065616;28;20476;-71
2021/01/13 06:32:32;;;;;;;12.33;4.70;;;;;;;;;;5058860;28;20461;-71
2021/01/13 06:35:04;;;;;;;10.23;4.53;;;;;;;;;;5068810;28;20467;-71
2021/01/13 06:37:38;;;;;;;9.20;5.07;;;;;;;;;;5063277;28;20464;-71
2021/01/13 06:40:12;;;;;;;9.03;5.10;;;;;;;;;;5065528;28;20472;-71
2021/01/13 06:42:40;;;;;;;8.20;4.87;;;;;;;;;;5061724;28;20514;-71
2021/01/13 06:45:08;;;;;;;12.30;4.73;;;;;;;;;;5061322;28;20464;-71
2021/01/13 06:47:34;;;;;;;10.33;4.50;;;;;;;;;;5062920;28;20461;-71
2021/01/13 06:50:01;;;;;;;6.63;4.40;;;;;;;;;;5064085;28;20476;-71
2021/01/13 06:52:31;;;;;;;9.50;5.37;;;;;;;;;;5062343;28;20452;-71
2021/01/13 06:54:58;;;;;;;7.67;4.23;;;;;;;;;;5067058;28;20469;-71
2021/01/13 06:57:29;;;;;;;7.57;4.80;;;;;;;;;;5059214;28;20448;-71
2021/01/13 06:59:57;;;;;;;13.37;5.40;;;;;;;;;;5065708;28;20498;-71
2021/01/13 07:02:30;;;;;;;8.27;5.77;;;;;;;;;;5061299;28;20468;-71
2021/01/13 07:04:56;;;;;;;7.57;4.90;;;;;;;;;;5062029;28;20460;-71
2021/01/13 07:07:23;;;;;;;6.67;4.83;;;;;;;;;;5065723;28;20479;-72
2021/01/13 07:09:51;;;;;;;8.53;5.60;;;;;;;;;;5064952;28;20488;-72
2021/01/13 07:12:18;;;;;;;6.43;5.83;;;;;;;;;;5059253;28;20464;-73
2021/01/13 07:14:46;;;;;;;7.77;4.67;;;;;;;;;;5066848;28;21356;-70
2021/01/13 07:17:16;;;;;;;6.70;5.00;;;;;;;;;;5067519;28;20469;-72
2021/01/13 07:19:46;;;;;;;6.60;4.73;;;;;;;;;;5063441;28;20477;-73
2021/01/13 07:22:14;;;;;;;7.70;5.00;;;;;;;;;;5069308;28;20456;-73
2021/01/13 07:24:42;;;;;;;10.07;4.20;;;;;;;;;;5064308;28;20449;-73
2021/01/13 07:27:08;;;;;;;7.87;4.87;;;;;;;;;;5069670;28;20464;-73
2021/01/13 07:29:35;;;;;;;5.37;4.07;;;;;;;;;;5066580;28;20484;-73
2021/01/13 07:32:03;;;;;;;16.67;5.30;;;;;;;;;;5060841;28;20469;-73
2021/01/13 07:34:35;;;;;;;8.83;5.00;;;;;;;;;;5063792;28;20480;-73
2021/01/13 07:37:03;;;;;;;4.67;3.23;;;;;;;;;;5066944;28;20488;-73
2021/01/13 07:39:50;;;;;;;6.33;4.23;;;;;;;;;;5063568;28;20469;-73
2021/01/13 07:42:28;;;;;;;8.27;5.00;;;;;;;;;;5043947;28;20868;-73
2021/01/13 07:45:01;;;;;;;11.53;5.10;;;;;;;;;;5066569;28;20514;-73
2021/01/13 07:47:28;;;;;;;14.30;6.20;;;;;;;;;;5064441;28;20956;-73
2021/01/13 07:50:07;;;;;;;9.27;4.20;;;;;;;;;;5063778;28;20469;-73
2021/01/13 07:52:37;;;;;;;8.13;4.60;;;;;;;;;;5068848;28;20444;-73
2021/01/13 07:55:04;;;;;;;15.43;5.30;;;;;;;;;;5061527;28;20478;-73
2021/01/13 07:57:42;;;;;;;7.73;5.07;;;;;;;;;;5066178;28;20490;-73
2021/01/13 08:00:09;;;;;;;7.10;4.37;;;;;;;;;;5067573;28;20473;-72
2021/01/13 08:02:56;;;;;;;5.30;4.77;;;;;;;;;;5061461;28;20453;-72
2021/01/13 08:05:38;;;;;;;6.47;4.80;;;;;;;;;;5063599;28;20449;-72
2021/01/13 08:08:07;;;;;;;5.73;3.47;;;;;;;;;;5076121;28;20842;-72
2021/01/13 08:10:36;;;;;;;6.60;4.57;;;;;;;;;;5064999;28;21002;-72
2021/01/13 08:13:20;;;;;;;9.40;4.17;;;;;;;;;;5065344;28;20542;-72
2021/01/13 08:16:05;;;;;;;9.83;5.70;;;;;;;;;;5075561;28;20465;-72
2021/01/13 08:18:57;;;;;;;14.13;4.63;;;;;;;;;;5064978;28;20460;-72
2021/01/13 08:21:33;;;;;;;7.03;4.50;;;;;;;;;;5063012;28;20458;-72
2021/01/13 08:24:06;;;;;;;11.27;4.37;;;;;;;;;;5062144;28;20445;-72
2021/01/13 08:26:33;;;;;;;6.40;4.53;;;;;;;;;;5059966;28;21288;-73
2021/01/13 08:29:01;;;;;;;9.10;4.90;;;;;;;;;;5065105;28;20476;-73
2021/01/13 08:31:29;;;;;;;9.10;5.20;;;;;;;;;;5059079;28;20503;-73
2021/01/13 08:34:06;;;;;;;12.90;4.80;;;;;;;;;;5063772;28;20534;-73
2021/01/13 08:36:33;;;;;;;11.17;5.40;;;;;;;;;;5061293;28;20448;-73
2021/01/13 08:39:14;;;;;;;10.80;6.47;;;;;;;;;;5065942;28;20480;-73
2021/01/13 08:41:42;;;;;;;6.30;4.77;;;;;;;;;;5063606;28;20449;-72
2021/01/13 08:44:10;;;;;;;14.20;6.13;;;;;;;;;;5063261;28;20969;-73
2021/01/13 08:46:47;;;;;;;11.17;5.80;;;;;;;;;;5065559;28;20830;-73
2021/01/13 08:49:24;;;;;;;9.37;5.90;;;;;;;;;;5063287;28;20550;-72
2021/01/13 08:52:15;;;;;;;7.30;5.00;;;;;;;;;;5064090;28;20449;-72
2021/01/13 08:54:43;;;;;;;7.80;5.50;;;;;;;;;;5048559;28;20882;-72
2021/01/13 08:57:11;;;;;;;9.33;5.40;;;;;;;;;;5060956;28;21085;-72
2021/01/13 08:59:39;;;;;;;8.17;5.00;;;;;;;;;;5070262;28;20480;-73
2021/01/13 09:02:07;;;;;;;8.97;4.40;;;;;;;;;;5065933;28;20460;-72
2021/01/13 09:04:48;;;;;;;8.90;6.10;;;;;;;;;;5068097;28;20445;-72
2021/01/13 09:07:16;;;;;;;5.80;4.80;;;;;;;;;;5065566;28;20453;-72
2021/01/13 09:09:47;;;;;;;10.43;5.73;;;;;;;;;;5065944;28;21044;-71
2021/01/13 09:12:28;;;;;;;8.83;6.87;;;;;;;;;;5071761;28;20444;-71
2021/01/13 09:15:10;;;;;;;7.40;4.40;;;;;;;;;;5064556;28;20881;-71
2021/01/13 09:17:37;;;;;;;6.27;5.07;;;;;;;;;;5068683;28;21103;-71
2021/01/13 09:20:04;;;;;;;6.00;4.90;;;;;;;;;;5054585;28;20472;-71
2021/01/13 09:22:41;;;;;;;8.40;5.17;;;;;;;;;;5066279;28;20456;-71
2021/01/13 09:25:13;;;;;;;10.00;4.57;;;;;;;;;;5066423;28;20460;-72
2021/01/13 09:27:42;;;;;;;6.47;4.47;;;;;;;;;;5062219;28;20445;-72
2021/01/13 09:30:09;;;;;;;8.17;5.20;;;;;;;;;;5070920;28;20464;-72
2021/01/13 09:32:50;;;;;;;5.77;4.77;;;;;;;;;;5067326;28;20449;-72
2021/01/13 09:35:23;;;;;;;5.50;4.37;;;;;;;;;;5069116;28;20456;-72
2021/01/13 09:37:52;;;;;;;6.63;5.27;;;;;;;;;;5067401;28;20456;-72
2021/01/13 09:40:21;;;;;;;8.27;4.90;;;;;;;;;;5067346;28;20468;-72
2021/01/13 09:42:54;;;;;;;8.97;5.57;;;;;;;;;;5068204;28;20456;-72
2021/01/13 09:45:21;;;;;;;10.73;4.63;;;;;;;;;;5067568;28;20449;-72
2021/01/13 09:47:47;;;;;;;5.23;4.60;;;;;;;;;;5067979;28;20465;-72
2021/01/13 09:50:15;;;;;;;10.90;5.33;;;;;;;;;;5063734;28;20480;-71
2021/01/13 09:52:43;;;;;;;12.47;5.20;;;;;;;;;;5067247;28;21156;-72
2021/01/13 09:55:10;;;;;;;6.57;5.13;;;;;;;;;;5072064;28;20477;-72
2021/01/13 09:57:38;;;;;;;9.10;5.70;;;;;;;;;;5068609;28;20866;-72
2021/01/13 10:00:07;;;;;;;10.03;5.30;;;;;;;;;;5067518;28;20475;-72
2021/01/13 10:02:33;;;;;;;11.43;5.20;;;;;;;;;;5062462;28;20460;-72
2021/01/13 10:05:00;;;;;;;6.70;4.70;;;;;;;;;;5061028;28;20464;-72
2021/01/13 10:07:30;;;;;;;9.60;5.53;;;;;;;;;;5070043;28;20456;-72
2021/01/13 10:09:57;;;;;;;8.47;5.83;;;;;;;;;;5060102;28;20480;-71
2021/01/13 10:12:35;;;;;;;8.20;5.23;;;;;;;;;;5070130;28;20468;-71
2021/01/13 10:15:04;;;;;;;7.30;4.70;;;;;;;;;;5062526;28;20489;-71
2021/01/13 10:17:32;;;;;;;8.77;4.07;;;;;;;;;;5061545;28;20499;-72
2021/01/13 10:19:58;;;;;;;9.37;5.50;;;;;;;;;;5063413;28;20841;-72
2021/01/13 10:22:25;;;;;;;5.60;4.30;;;;;;;;;;5057199;28;20480;-72
2021/01/13 10:24:52;;;;;;;8.73;4.67;;;;;;;;;;5067093;28;20437;-72
2021/01/13 10:27:19;;;;;;;6.00;4.67;;;;;;;;;;5060945;28;20845;-71
2021/01/13 10:29:46;;;;;;;9.60;4.50;;;;;;;;;;5067239;28;20473;-72
2021/01/13 10:32:14;;;;;;;8.03;5.00;;;;;;;;;;5066055;28;20456;-71
2021/01/13 10:34:41;;;;;;;6.80;4.57;;;;;;;;;;5069378;28;20645;-71
2021/01/13 10:37:08;;;;;;;6.13;4.00;;;;;;;;;;5062004;28;20461;-71
2021/01/13 10:39:35;;;;;;;7.83;4.83;;;;;;;;;;5061738;28;21063;-71
2021/01/13 10:42:05;;;;;;;6.80;4.70;;;;;;;;;;5062763;28;20450;-71
2021/01/13 10:44:31;;;;;;;7.53;5.47;;;;;;;;;;5059045;28;20537;-72
2021/01/13 10:46:59;;;;;;;12.73;6.80;;;;;;;;;;5071295;28;20469;-71
2021/01/13 10:49:28;;;;;;;8.83;5.93;;;;;;;;;;5066784;28;20498;-71
2021/01/13 10:51:56;;;;;;;11.67;5.70;;;;;;;;;;5071131;28;20449;-71
2021/01/13 10:54:23;;;;;;;7.20;5.83;;;;;;;;;;5065019;28;20481;-71
2021/01/13 10:56:52;;;;;;;8.00;4.67;;;;;;;;;;5063370;28;20537;-72
2021/01/13 10:59:19;;;;;;;8.97;5.20;;;;;;;;;;5067905;28;20483;-71
2021/01/13 11:01:47;;;;;;;6.70;4.37;;;;;;;;;;5057928;28;20462;-72
2021/01/13 11:04:31;;;;;;;8.00;4.20;;;;;;;;;;5072577;28;20448;-72
2021/01/13 11:06:58;;;;;;;5.93;4.90;;;;;;;;;;5064817;28;20874;-71
2021/01/13 11:09:25;;;;;;;6.63;4.47;;;;;;;;;;5063178;28;20542;-72
2021/01/13 11:11:52;;;;;;;6.80;4.40;;;;;;;;;;5067947;28;20458;-72
2021/01/13 11:14:29;;;;;;;8.97;4.87;;;;;;;;;;5081998;28;20475;-71
2021/01/13 11:16:59;;;;;;;8.40;4.30;;;;;;;;;;5066971;28;20467;-72
2021/01/13 11:19:26;;;;;;;5.30;3.93;;;;;;;;;;5064452;28;20487;-71
2021/01/13 11:21:55;;;;;;;9.77;4.50;;;;;;;;;;5068470;28;20820;-72
2021/01/13 11:24:27;;;;;;;7.03;3.97;;;;;;;;;;5060768;28;20453;-72
2021/01/13 11:26:55;;;;;;;7.90;5.10;;;;;;;;;;5068981;28;20448;-72
2021/01/13 11:29:23;;;;;;;6.03;4.10;;;;;;;;;;5075652;28;20464;-72
2021/01/13 11:31:50;;;;;;;7.60;5.10;;;;;;;;;;5067171;28;20491;-72
2021/01/13 11:34:20;;;;;;;7.60;4.63;;;;;;;;;;5073015;28;20502;-72
2021/01/13 11:36:51;;;;;;;8.40;4.37;;;;;;;;;;5065606;28;20449;-73
2021/01/13 11:39:22;;;;;;;7.10;5.00;;;;;;;;;;5062096;28;20537;-72
2021/01/13 11:41:57;;;;;;;9.40;4.60;;;;;;;;;;5066059;28;20958;-72
2021/01/13 11:44:28;;;;;;;8.93;5.30;;;;;;;;;;5066267;28;20535;-72
2021/01/13 11:47:00;;;;;;;6.07;4.87;;;;;;;;;;5059658;28;20829;-72
2021/01/13 11:49:39;;;;;;;8.30;5.37;;;;;;;;;;5067143;28;20997;-72
2021/01/13 11:52:08;;;;;;;8.00;5.50;;;;;;;;;;5066984;28;20449;-73
2021/01/13 11:54:36;;;;;;;7.83;5.23;;;;;;;;;;5059519;28;20482;-72
2021/01/13 11:57:17;;;;;;;7.13;5.30;;;;;;;;;;5058576;28;20448;-72
2021/01/13 11:59:44;;;;;;;4.33;3.77;;;;;;;;;;5065070;28;20475;-72
2021/01/13 12:02:16;;;;;;;13.70;5.50;;;;;;;;;;5060416;28;20983;-72
2021/01/13 12:04:43;;;;;;;10.77;5.40;;;;;;;;;;5061197;28;20502;-72
2021/01/13 12:07:10;;;;;;;7.27;5.47;;;;;;;;;;5064265;28;20453;-72
2021/01/13 12:09:37;;;;;;;6.43;4.00;;;;;;;;;;5069640;28;20511;-71
2021/01/13 12:12:05;;;;;;;7.30;3.97;;;;;;;;;;5067266;28;20944;-71
2021/01/13 12:14:39;;;;;;;4.60;3.50;;;;;;;;;;5069528;28;21001;-72
2021/01/13 12:17:06;;;;;;;7.33;3.77;;;;;;;;;;5063700;28;20453;-72
2021/01/13 12:19:36;;;;;;;10.83;4.47;;;;;;;;;;5064532;28;20484;-72
2021/01/13 12:22:02;;;;;;;8.60;5.23;;;;;;;;;;5062750;28;20453;-72
2021/01/13 12:24:36;;;;;;;10.07;4.63;;;;;;;;;;5058476;28;20461;-72
2021/01/13 12:27:18;;;;;;;7.63;3.83;;;;;;;;;;5053940;28;20445;-72
2021/01/13 12:29:45;;;;;;;7.70;3.30;;;;;;;;;;5065766;28;20508;-72
2021/01/13 12:32:12;;;;;;;6.33;3.83;;;;;;;;;;5064186;28;20492;-72
2021/01/13 12:34:39;;;;;;;5.50;3.30;;;;;;;;;;5067243;28;20510;-72
2021/01/13 12:37:06;;;;;;;5.30;3.40;;;;;;;;;;5061197;28;20441;-72
2021/01/13 12:39:34;;;;;;;7.33;3.77;;;;;;;;;;5063006;28;20481;-72
2021/01/13 12:42:01;;;;;;;6.77;4.03;;;;;;;;;;5061544;28;20457;-72
2021/01/13 12:44:29;;;;;;;5.83;3.30;;;;;;;;;;5072246;28;20447;-72
2021/01/13 12:46:57;;;;;;;5.27;2.90;;;;;;;;;;5065843;28;20457;-71
2021/01/13 12:49:25;;;;;;;5.37;2.50;;;;;;;;;;5058869;28;20470;-72
2021/01/13 12:51:52;;;;;;;3.73;2.60;;;;;;;;;;5066804;28;20448;-72
2021/01/13 12:54:19;;;;;;;5.90;2.70;;;;;;;;;;5060411;28;20495;-72
2021/01/13 12:56:45;;;;;;;8.30;2.37;;;;;;;;;;5063909;28;20821;-72
2021/01/13 12:59:12;;;;;;;5.20;2.60;;;;;;;;;;5072434;28;20480;-72
2021/01/13 13:01:39;;;;;;;8.40;2.80;;;;;;;;;;5064627;28;20541;-73
2021/01/13 13:04:07;;;;;;;6.70;2.60;;;;;;;;;;5069596;28;20456;-71
2021/01/13 13:06:34;;;;;;;5.80;4.07;;;;;;;;;;5062326;28;20465;-74
2021/01/13 13:09:02;;;;;;;4.33;3.13;;;;;;;;;;5072708;28;20473;-71
2021/01/13 13:11:29;;;;;;;7.63;3.53;;;;;;;;;;5065678;28;20503;-71
2021/01/13 13:13:56;;;;;;;4.50;3.63;;;;;;;;;;5072658;28;20477;-72
2021/01/13 13:16:22;;;;;;;4.27;3.47;;;;;;;;;;5071881;28;20477;-73
2021/01/13 13:18:50;;;;;;;5.17;3.20;;;;;;;;;;5074065;28;20833;-73
2021/01/13 13:21:18;;;;;;;5.40;4.00;;;;;;;;;;5063842;28;21015;-72
2021/01/13 13:23:44;;;;;;;4.50;3.30;;;;;;;;;;5068731;28;20461;-72
2021/01/13 13:26:11;;;;;;;6.57;3.33;;;;;;;;;;5069028;28;20990;-74
2021/01/13 13:28:38;;;;;;;6.43;3.00;;;;;;;;;;5070515;28;20460;-73
2021/01/13 13:31:05;;;;;;;3.37;2.67;;;;;;;;;;5066653;28;20457;-73
2021/01/13 13:33:32;;;;;;;3.27;2.97;;;;;;;;;;5066513;28;20489;-74
2021/01/13 13:35:59;;;;;;;4.43;2.37;;;;;;;;;;5061231;28;20461;-74
2021/01/13 13:38:26;;;;;;;4.70;2.07;;;;;;;;;;5068274;28;21058;-73
2021/01/13 13:40:53;;;;;;;3.23;1.90;;;;;;;;;;5068702;28;20458;-73
2021/01/13 13:43:19;;;;;;;3.80;2.10;;;;;;;;;;5067641;28;20456;-74
2021/01/13 13:45:46;;;;;;;3.77;2.27;;;;;;;;;;5063221;28;20467;-73
2021/01/13 13:48:13;;;;;;;2.43;1.97;;;;;;;;;;5072007;28;20471;-74
2021/01/13 13:50:40;;;;;;;6.70;2.37;;;;;;;;;;5065365;28;20449;-73
2021/01/13 13:53:06;;;;;;;7.07;2.10;;;;;;;;;;5072016;28;20534;-74
2021/01/13 13:55:34;;;;;;;2.40;2.00;;;;;;;;;;5070088;28;21047;-74
2021/01/13 13:58:01;;;;;;;6.27;2.73;;;;;;;;;;5068736;28;20441;-73
2021/01/13 14:00:28;;;;;;;3.60;1.93;;;;;;;;;;5065627;28;20837;-73
2021/01/13 14:02:54;;;;;;;5.57;2.90;;;;;;;;;;5062759;28;20791;-73
2021/01/13 14:05:21;;;;;;;8.73;2.57;;;;;;;;;;5064049;28;20441;-74
2021/01/13 14:07:48;;;;;;;5.30;2.00;;;;;;;;;;5069465;28;20451;-74
2021/01/13 14:10:15;;;;;;;2.33;2.03;;;;;;;;;;5071448;28;20477;-73
2021/01/13 14:12:42;;;;;;;13.20;3.27;;;;;;;;;;5068132;28;20877;-73
2021/01/13 14:15:11;;;;;;;9.07;2.90;;;;;;;;;;5071855;28;20484;-73
2021/01/13 14:17:38;;;;;;;5.77;3.33;;;;;;;;;;5067755;28;20445;-74
2021/01/13 14:20:05;;;;;;;6.70;3.37;;;;;;;;;;5077578;28;20979;-75
2021/01/13 14:22:32;;;;;;;9.03;3.17;;;;;;;;;;5066563;28;20449;-74
2021/01/13 14:24:59;;;;;;;19.43;4.20;;;;;;;;;;5068548;28;20563;-73
2021/01/13 14:27:25;;;;;;;5.20;3.13;;;;;;;;;;5061350;28;20457;-73
2021/01/13 14:29:53;;;;;;;6.87;3.17;;;;;;;;;;5067933;28;20561;-73
2021/01/13 14:32:20;;;;;;;3.83;2.40;;;;;;;;;;5064189;28;20466;-73
2021/01/13 14:34:47;;;;;;;3.20;2.53;;;;;;;;;;5070355;28;20492;-74
2021/01/13 14:37:13;;;;;;;4.47;3.10;;;;;;;;;;5063321;28;20453;-74
2021/01/13 14:39:41;;;;;;;5.77;4.20;;;;;;;;;;5057789;28;20512;-74
2021/01/13 14:42:08;;;;;;;8.87;5.30;;;;;;;;;;5061828;28;20481;-74
2021/01/13 14:44:35;;;;;;;7.57;5.67;;;;;;;;;;5066880;28;20452;-74
2021/01/13 14:47:05;;;;;;;12.03;6.23;;;;;;;;;;5065881;28;20989;-74
2021/01/13 14:49:31;;;;;;;9.53;7.80;;;;;;;;;;5063913;28;20510;-74
2021/01/13 14:51:58;;;;;;;10.87;7.60;;;;;;;;;;5069958;28;20461;-73
2021/01/13 14:54:25;;;;;;;13.73;7.30;;;;;;;;;;5067186;28;20481;-72